createdAt,value
2023-06-05T00:01:52.425Z,1.90
2023-06-05T00:04:24.385Z,2.10
2023-06-05T00:06:53.691Z,1.95
2023-06-05T00:09:24.542Z,2.02
2023-06-05T00:11:54.562Z,2.33
2023-06-05T00:14:25.216Z,2.12
2023-06-05T00:16:54.399Z,1.80
2023-06-05T00:19:23.032Z,1.80
2023-06-05T00:21:54.258Z,1.85
2023-06-05T00:24:23.533Z,1.90
2023-06-05T00:26:52.522Z,1.98
2023-06-05T00:29:21.830Z,2.10
2023-06-05T00:31:50.794Z,2.40
2023-06-05T00:34:19.346Z,2.20
2023-06-05T00:36:50.728Z,2.00
2023-06-05T00:39:19.733Z,2.50
2023-06-05T00:41:48.916Z,2.20
2023-06-05T00:44:19.329Z,2.40
2023-06-05T00:46:49.559Z,2.00
2023-06-05T00:49:18.449Z,2.67
2023-06-05T00:51:48.034Z,2.70
2023-06-05T00:54:16.557Z,2.80
2023-06-05T00:56:45.844Z,2.77
2023-06-05T00:59:14.856Z,3.10
2023-06-05T01:01:43.674Z,2.75
2023-06-05T01:04:12.425Z,2.65
2023-06-05T01:06:44.602Z,1.95
2023-06-05T01:09:14.654Z,2.75
2023-06-05T01:12:18.339Z,2.35
2023-06-05T01:14:49.091Z,2.67
2023-06-05T01:17:19.695Z,2.77
2023-06-05T01:19:50.320Z,2.95
2023-06-05T01:22:19.203Z,3.17
2023-06-05T01:24:48.334Z,3.00
2023-06-05T01:27:36.280Z,3.15
2023-06-05T01:30:16.617Z,2.95
2023-06-05T01:32:58.093Z,2.65
2023-06-05T01:35:28.457Z,2.60
2023-06-05T01:37:59.248Z,2.80
2023-06-05T01:40:27.865Z,2.33
2023-06-05T01:42:57.076Z,2.55
2023-06-05T01:45:26.159Z,2.75
2023-06-05T01:47:57.811Z,2.20
2023-06-05T01:50:28.808Z,2.58
2023-06-05T01:52:57.846Z,2.33
2023-06-05T01:55:27.677Z,2.02
2023-06-05T01:57:56.972Z,2.33
2023-06-05T02:00:25.773Z,2.10
2023-06-05T02:02:54.700Z,2.62
2023-06-05T02:05:23.640Z,2.50
2023-06-05T02:07:55.295Z,2.30
2023-06-05T02:10:24.685Z,2.85
2023-06-05T02:12:53.405Z,2.50
2023-06-05T02:15:23.087Z,2.47
2023-06-05T02:17:53.369Z,2.30
2023-06-05T02:20:29.094Z,2.98
2023-06-05T02:22:59.703Z,2.30
2023-06-05T02:25:29.209Z,2.20
2023-06-05T02:27:58.100Z,2.42
2023-06-05T02:30:27.468Z,2.02
2023-06-05T02:33:01.905Z,2.30
2023-06-05T02:35:32.124Z,2.50
2023-06-05T02:38:00.667Z,2.80
2023-06-05T02:40:30.198Z,3.15
2023-06-05T02:42:58.965Z,2.37
2023-06-05T02:45:27.524Z,2.30
2023-06-05T02:47:56.738Z,2.37
2023-06-05T02:50:25.751Z,2.83
2023-06-05T02:52:57.169Z,2.15
2023-06-05T02:55:29.553Z,2.70
2023-06-05T02:57:59.045Z,2.55
2023-06-05T03:00:29.803Z,3.52
2023-06-05T03:03:01.383Z,2.62
2023-06-05T03:05:31.692Z,2.70
2023-06-05T03:08:02.239Z,2.52
2023-06-05T03:10:31.791Z,2.90
2023-06-05T03:13:00.944Z,2.52
2023-06-05T03:15:31.525Z,2.50
2023-06-05T03:18:00.276Z,2.80
2023-06-05T03:20:30.166Z,2.40
2023-06-05T03:22:58.962Z,2.55
2023-06-05T03:25:28.618Z,2.85
2023-06-05T03:27:58.887Z,2.65
2023-06-05T03:30:30.114Z,2.50
2023-06-05T03:33:02.504Z,2.75
2023-06-05T03:35:33.579Z,2.30
2023-06-05T03:38:04.474Z,2.80
2023-06-05T03:40:33.510Z,2.80
2023-06-05T03:43:02.572Z,2.80
2023-06-05T03:45:37.526Z,2.35
2023-06-05T03:48:07.832Z,2.10
2023-06-05T03:50:42.359Z,2.15
2023-06-05T03:53:12.768Z,2.10
2023-06-05T03:55:49.600Z,2.17
2023-06-05T03:58:20.408Z,2.00
2023-06-05T04:00:51.310Z,1.80
2023-06-05T04:03:22.618Z,2.10
2023-06-05T04:05:53.192Z,2.67
2023-06-05T04:08:22.135Z,2.50
2023-06-05T04:10:51.628Z,2.20
2023-06-05T04:13:22.552Z,2.45
2023-06-05T04:15:51.313Z,2.65
2023-06-05T04:18:20.133Z,2.22
2023-06-05T04:20:49.546Z,2.30
2023-06-05T04:23:20.026Z,1.57
2023-06-05T04:25:50.288Z,2.27
2023-06-05T04:28:19.697Z,2.40
2023-06-05T04:30:48.522Z,1.80
2023-06-05T04:33:18.395Z,1.90
2023-06-05T04:35:48.618Z,2.10
2023-06-05T04:38:19.275Z,1.60
2023-06-05T04:40:51.281Z,5.03
2023-06-05T04:43:19.825Z,1.90
2023-06-05T04:45:51.008Z,1.67
2023-06-05T04:48:21.157Z,1.10
2023-06-05T04:50:50.609Z,1.30
2023-06-05T04:53:20.009Z,1.77
2023-06-05T04:55:49.606Z,1.30
2023-06-05T04:58:20.660Z,1.20
2023-06-05T05:00:50.264Z,1.30
2023-06-05T05:03:20.267Z,1.00
2023-06-05T05:05:49.258Z,1.20
2023-06-05T05:08:18.181Z,1.32
2023-06-05T05:10:47.650Z,1.05
2023-06-05T05:13:16.151Z,1.50
2023-06-05T05:15:47.939Z,1.07
2023-06-05T05:18:17.326Z,1.60
2023-06-05T05:20:47.249Z,1.40
2023-06-05T05:23:18.979Z,1.17
2023-06-05T05:25:47.757Z,1.62
2023-06-05T05:28:16.401Z,1.40
2023-06-05T05:30:46.378Z,1.75
2023-06-05T05:33:16.495Z,1.30
2023-06-05T05:35:47.158Z,1.20
2023-06-05T05:38:16.788Z,1.60
2023-06-05T05:40:45.337Z,1.37
2023-06-05T05:43:14.017Z,1.40
2023-06-05T05:45:44.585Z,1.10
2023-06-05T05:48:13.753Z,1.25
2023-06-05T05:50:42.980Z,1.10
2023-06-05T05:53:11.614Z,1.12
2023-06-05T05:55:40.201Z,1.07
2023-06-05T05:58:09.041Z,1.20
2023-06-05T06:00:38.504Z,1.10
2023-06-05T06:03:08.353Z,1.50
2023-06-05T06:05:38.335Z,1.42
2023-06-05T06:08:07.369Z,4.25
2023-06-05T06:10:37.162Z,2.70
2023-06-05T06:13:06.557Z,3.10
2023-06-05T06:15:35.180Z,1.40
2023-06-05T06:18:04.799Z,1.25
2023-06-05T06:20:35.456Z,0.98
2023-06-05T06:23:04.302Z,0.82
2023-06-05T06:25:33.217Z,1.17
2023-06-05T06:28:02.070Z,2.25
2023-06-05T06:30:32.790Z,1.00
2023-06-05T06:33:01.862Z,1.12
2023-06-05T06:35:32.562Z,1.10
2023-06-05T06:38:01.080Z,1.27
2023-06-05T06:40:30.015Z,0.90
2023-06-05T06:42:58.997Z,1.40
2023-06-05T06:45:36.248Z,1.30
2023-06-05T06:48:08.606Z,0.80
2023-06-05T06:50:37.470Z,0.90
2023-06-05T06:53:06.547Z,1.65
2023-06-05T06:55:35.854Z,1.30
2023-06-05T06:58:06.594Z,1.20
2023-06-05T07:00:35.778Z,0.90
2023-06-05T07:03:05.066Z,1.10
2023-06-05T07:05:34.414Z,1.15
2023-06-05T07:08:04.179Z,1.25
2023-06-05T07:10:32.788Z,1.30
2023-06-05T07:13:01.328Z,1.47
2023-06-05T07:15:30.688Z,0.82
2023-06-05T07:18:00.566Z,1.00
2023-06-05T07:20:29.975Z,0.90
2023-06-05T07:23:01.382Z,2.80
2023-06-05T07:25:30.471Z,1.02
2023-06-05T07:28:00.891Z,1.27
2023-06-05T07:30:30.223Z,1.05
2023-06-05T07:32:59.390Z,1.10
2023-06-05T07:35:29.433Z,1.30
2023-06-05T07:37:58.396Z,0.90
2023-06-05T07:40:27.272Z,1.10
2023-06-05T07:42:56.665Z,1.20
2023-06-05T07:45:25.488Z,2.02
2023-06-05T07:47:54.536Z,2.60
2023-06-05T07:50:26.560Z,1.20
2023-06-05T07:52:55.251Z,2.27
2023-06-05T07:55:24.039Z,1.67
2023-06-05T07:57:53.474Z,1.00
2023-06-05T08:00:22.931Z,1.05
2023-06-05T08:02:52.162Z,2.33
2023-06-05T08:05:21.201Z,1.90
2023-06-05T08:07:50.750Z,1.82
2023-06-05T08:10:19.371Z,2.40
2023-06-05T08:12:48.211Z,1.20
2023-06-05T08:15:17.030Z,0.90
2023-06-05T08:17:45.699Z,1.10
2023-06-05T08:20:16.448Z,1.10
2023-06-05T08:22:45.920Z,0.88
2023-06-05T08:25:14.621Z,1.55
2023-06-05T08:27:42.991Z,2.20
2023-06-05T08:30:13.096Z,1.02
2023-06-05T08:32:44.082Z,1.40
2023-06-05T08:35:16.279Z,1.30
2023-06-05T08:37:44.820Z,1.12
2023-06-05T08:40:15.800Z,1.20
2023-06-05T08:42:45.905Z,1.17
2023-06-05T08:45:15.193Z,1.20
2023-06-05T08:47:44.545Z,0.93
2023-06-05T08:50:13.284Z,1.40
2023-06-05T08:52:42.347Z,1.20
2023-06-05T08:55:14.010Z,1.20
2023-06-05T08:57:43.736Z,1.00
2023-06-05T09:00:15.407Z,1.20
2023-06-05T09:02:44.530Z,2.10
2023-06-05T09:05:14.631Z,1.98
2023-06-05T09:07:44.945Z,1.12
2023-06-05T09:10:26.015Z,1.12
2023-06-05T09:13:00.613Z,1.47
2023-06-05T09:15:35.116Z,1.37
2023-06-05T09:18:11.199Z,1.30
2023-06-05T09:20:41.647Z,1.42
2023-06-05T09:23:29.345Z,1.30
2023-06-05T09:26:01.139Z,1.57
2023-06-05T09:28:32.420Z,1.10
2023-06-05T09:31:05.634Z,1.30
2023-06-05T09:33:35.778Z,1.30
2023-06-05T09:36:12.539Z,2.90
2023-06-05T09:38:42.670Z,1.20
2023-06-05T09:41:12.808Z,1.50
2023-06-05T09:43:42.610Z,1.50
2023-06-05T09:46:15.317Z,1.30
2023-06-05T09:48:57.894Z,1.40
2023-06-05T09:51:27.076Z,1.45
2023-06-05T09:53:55.644Z,1.30
2023-06-05T09:56:24.985Z,1.40
2023-06-05T09:58:53.848Z,1.22
2023-06-05T10:01:27.815Z,1.22
2023-06-05T10:04:04.337Z,1.20
2023-06-05T10:06:34.447Z,1.27
2023-06-05T10:09:03.745Z,1.85
2023-06-05T10:11:32.757Z,1.87
2023-06-05T10:14:02.239Z,1.50
2023-06-05T10:16:32.163Z,1.40
2023-06-05T10:19:01.457Z,1.10
2023-06-05T10:21:30.827Z,1.20
2023-06-05T10:24:06.707Z,4.80
2023-06-05T10:27:13.035Z,1.55
2023-06-05T10:30:27.332Z,1.67
2023-06-05T10:33:34.220Z,0.90
2023-06-05T10:36:17.296Z,1.00
2023-06-05T10:38:46.503Z,1.02
2023-06-05T10:41:15.697Z,1.10
2023-06-05T10:43:56.268Z,1.40
2023-06-05T10:46:36.766Z,1.22
2023-06-05T10:49:21.224Z,2.30
2023-06-05T10:51:58.427Z,3.17
2023-06-05T10:54:42.132Z,1.35
2023-06-05T10:57:11.425Z,1.20
2023-06-05T10:59:43.061Z,1.30
2023-06-05T11:02:17.521Z,1.05
2023-06-05T11:04:52.077Z,1.40
2023-06-05T11:07:29.093Z,1.45
2023-06-05T11:10:23.719Z,1.57
2023-06-05T11:12:57.555Z,1.60
2023-06-05T11:15:42.314Z,1.77
2023-06-05T11:18:32.231Z,1.45
2023-06-05T11:21:01.551Z,1.57
2023-06-05T11:23:31.258Z,1.17
2023-06-05T11:26:23.087Z,1.27
2023-06-05T11:28:53.191Z,1.80
2023-06-05T11:31:31.956Z,1.70
2023-06-05T11:34:00.853Z,1.60
2023-06-05T11:36:30.411Z,1.35
2023-06-05T11:38:59.240Z,1.30
2023-06-05T11:41:28.228Z,1.20
2023-06-05T11:43:59.827Z,1.55
2023-06-05T11:46:43.471Z,1.30
2023-06-05T11:49:27.768Z,2.40
2023-06-05T11:51:56.633Z,1.85
2023-06-05T11:54:29.960Z,2.00
2023-06-05T11:57:00.602Z,1.62
2023-06-05T11:59:29.904Z,1.35
2023-06-05T12:01:59.111Z,1.80
2023-06-05T12:04:28.441Z,1.32
2023-06-05T12:06:58.246Z,1.25
2023-06-05T12:09:27.623Z,1.40
2023-06-05T12:12:09.017Z,1.30
2023-06-05T12:14:39.272Z,1.25
2023-06-05T12:17:12.466Z,1.35
2023-06-05T12:19:42.008Z,1.27
2023-06-05T12:22:12.433Z,1.10
2023-06-05T12:24:41.228Z,1.70
2023-06-05T12:27:10.475Z,1.72
2023-06-05T12:29:40.895Z,1.20
2023-06-05T12:32:26.367Z,1.50
2023-06-05T12:35:01.314Z,1.55
2023-06-05T12:37:30.465Z,1.45
2023-06-05T12:40:00.145Z,1.30
2023-06-05T12:42:29.483Z,1.30
2023-06-05T12:44:59.611Z,1.30
2023-06-05T12:47:28.512Z,1.50
2023-06-05T12:49:59.313Z,1.62
2023-06-05T12:52:28.341Z,1.80
2023-06-05T12:54:58.361Z,1.98
2023-06-05T12:57:27.295Z,1.60
2023-06-05T12:59:56.802Z,1.52
2023-06-05T13:02:26.176Z,1.30
2023-06-05T13:04:56.159Z,1.35
2023-06-05T13:07:25.814Z,1.40
2023-06-05T13:09:56.217Z,1.40
2023-06-05T13:12:25.298Z,1.60
2023-06-05T13:14:54.357Z,1.40
2023-06-05T13:17:23.911Z,1.70
2023-06-05T13:19:53.877Z,1.67
2023-06-05T13:22:23.657Z,1.50
2023-06-05T13:24:53.102Z,1.40
2023-06-05T13:27:22.026Z,1.20
2023-06-05T13:29:50.957Z,1.40
2023-06-05T13:32:20.464Z,1.40
2023-06-05T13:34:49.554Z,1.30
2023-06-05T13:37:18.795Z,1.40
2023-06-05T13:39:48.368Z,1.52
2023-06-05T13:42:17.352Z,1.50
2023-06-05T13:44:46.657Z,1.30
2023-06-05T13:47:15.869Z,1.50
2023-06-05T13:49:44.617Z,1.37
2023-06-05T13:52:13.548Z,1.20
2023-06-05T13:54:44.349Z,1.20
2023-06-05T13:57:13.577Z,1.30
2023-06-05T13:59:43.075Z,1.30
2023-06-05T14:02:12.715Z,1.42
2023-06-05T14:04:41.428Z,1.37
2023-06-05T14:07:10.137Z,1.20
2023-06-05T14:09:39.339Z,1.37
2023-06-05T14:12:10.800Z,1.20
2023-06-05T14:14:43.505Z,1.40
2023-06-05T14:17:12.408Z,1.20
2023-06-05T14:19:41.592Z,1.30
2023-06-05T14:22:11.703Z,1.37
2023-06-05T14:24:42.141Z,1.40
2023-06-05T14:27:14.319Z,1.80
2023-06-05T14:29:43.201Z,1.95
2023-06-05T14:32:12.425Z,1.90
2023-06-05T14:34:41.087Z,1.67
2023-06-05T14:37:09.859Z,2.12
2023-06-05T14:39:38.334Z,1.85
2023-06-05T14:42:08.517Z,1.80
2023-06-05T14:44:38.460Z,2.30
2023-06-05T14:47:08.210Z,1.47
2023-06-05T14:49:36.765Z,1.50
2023-06-05T14:52:06.491Z,1.55
2023-06-05T14:54:35.291Z,2.27
2023-06-05T14:57:04.251Z,1.20
2023-06-05T14:59:34.201Z,1.00
2023-06-05T15:02:03.568Z,1.65
2023-06-05T15:04:33.730Z,1.67
2023-06-05T15:07:02.630Z,1.60
2023-06-05T15:09:31.540Z,2.95
2023-06-05T15:12:01.140Z,2.35
2023-06-05T15:14:29.959Z,1.40
2023-06-05T15:16:58.808Z,1.32
2023-06-05T15:19:27.231Z,1.80
2023-06-05T15:21:56.205Z,2.05
2023-06-05T15:24:24.786Z,1.82
2023-06-05T15:26:53.238Z,1.75
2023-06-05T15:29:21.893Z,2.65
2023-06-05T15:31:50.691Z,1.98
2023-06-05T15:34:19.291Z,3.87
2023-06-05T15:36:48.276Z,2.00
2023-06-05T15:39:17.427Z,1.77
2023-06-05T15:41:46.406Z,1.80
2023-06-05T15:44:15.983Z,1.67
2023-06-05T15:46:46.030Z,1.52
2023-06-05T15:49:14.695Z,1.92
2023-06-05T15:51:43.282Z,1.90
2023-06-05T15:54:31.176Z,1.47
2023-06-05T15:56:45.686Z,2.05
2023-06-05T15:59:14.461Z,2.25
2023-06-05T16:01:43.414Z,2.77
2023-06-05T16:04:12.382Z,2.77
2023-06-05T16:06:44.144Z,2.17
2023-06-05T16:09:13.599Z,3.10
2023-06-05T16:11:42.651Z,2.35
2023-06-05T16:14:11.925Z,2.30
2023-06-05T16:16:40.578Z,2.27
2023-06-05T16:19:09.553Z,2.40
2023-06-05T16:21:38.870Z,2.20
2023-06-05T16:24:08.646Z,3.02
2023-06-05T16:26:39.053Z,1.90
2023-06-05T16:29:07.759Z,1.70
2023-06-05T16:31:37.668Z,1.40
2023-06-05T16:34:13.062Z,1.60
2023-06-05T16:36:41.923Z,1.45
2023-06-05T16:39:12.048Z,3.05
2023-06-05T16:41:41.205Z,1.82
2023-06-05T16:44:13.727Z,2.17
2023-06-05T16:46:44.489Z,1.98
2023-06-05T16:49:13.150Z,1.75
2023-06-05T16:51:41.899Z,1.87
2023-06-05T16:54:12.438Z,1.60
2023-06-05T16:56:41.424Z,2.90
2023-06-05T16:59:15.275Z,2.90
2023-06-05T17:01:45.085Z,2.00
2023-06-05T17:04:16.930Z,2.10
2023-06-05T17:06:49.418Z,2.17
2023-06-05T17:09:19.612Z,2.70
2023-06-05T17:11:48.410Z,3.20
2023-06-05T17:14:18.068Z,1.87
2023-06-05T17:16:46.549Z,2.30
2023-06-05T17:19:16.443Z,2.08
2023-06-05T17:21:46.326Z,2.35
2023-06-05T17:24:15.149Z,2.20
2023-06-05T17:26:44.063Z,2.30
2023-06-05T17:29:12.813Z,2.00
2023-06-05T17:31:41.990Z,1.90
2023-06-05T17:34:11.519Z,2.20
2023-06-05T17:36:40.344Z,2.10
2023-06-05T17:39:09.053Z,2.20
2023-06-05T17:41:39.736Z,2.02
2023-06-05T17:44:08.620Z,3.45
2023-06-05T17:46:37.251Z,2.50
2023-06-05T17:49:07.614Z,2.80
2023-06-05T17:51:37.928Z,2.95
2023-06-05T17:54:06.903Z,2.80
2023-06-05T17:56:37.786Z,3.05
2023-06-05T17:59:07.748Z,3.37
2023-06-05T18:01:37.611Z,2.70
2023-06-05T18:04:06.576Z,3.30
2023-06-05T18:06:37.080Z,2.58
2023-06-05T18:09:06.026Z,2.42
2023-06-05T18:11:35.241Z,2.90
2023-06-05T18:14:06.909Z,2.62
2023-06-05T18:16:37.383Z,2.25
2023-06-05T18:19:06.873Z,2.50
2023-06-05T18:21:37.789Z,2.62
2023-06-05T18:24:06.604Z,3.20
2023-06-05T18:26:35.580Z,2.50
2023-06-05T18:29:05.379Z,3.25
2023-06-05T18:31:34.296Z,2.75
2023-06-05T18:34:03.620Z,2.90
2023-06-05T18:36:32.677Z,2.70
2023-06-05T18:39:01.787Z,2.85
2023-06-05T18:41:31.044Z,2.65
2023-06-05T18:44:02.058Z,2.72
2023-06-05T18:46:31.478Z,2.60
2023-06-05T18:49:03.368Z,2.95
2023-06-05T18:51:32.185Z,2.90
2023-06-05T18:54:01.169Z,2.77
2023-06-05T18:56:31.496Z,2.40
2023-06-05T18:59:00.184Z,3.60
2023-06-05T19:01:29.677Z,3.75
2023-06-05T19:03:58.532Z,3.77
2023-06-05T19:06:29.232Z,4.12
2023-06-05T19:08:57.783Z,4.20
2023-06-05T19:11:27.499Z,4.62
2023-06-05T19:13:56.288Z,4.12
2023-06-05T19:16:26.181Z,3.98
2023-06-05T19:18:55.113Z,3.30
2023-06-05T19:21:24.191Z,3.90
2023-06-05T19:23:52.728Z,3.27
2023-06-05T19:26:22.431Z,2.98
2023-06-05T19:28:52.522Z,3.40
2023-06-05T19:31:21.582Z,3.30
2023-06-05T19:33:50.656Z,3.08
2023-06-05T19:36:19.400Z,2.80
2023-06-05T19:38:49.144Z,2.87
2023-06-05T19:41:17.933Z,3.30
2023-06-05T19:43:50.374Z,2.70
2023-06-05T19:46:19.276Z,2.90
2023-06-05T19:48:50.097Z,3.10
2023-06-05T19:51:19.251Z,3.00
2023-06-05T19:53:47.794Z,3.10
2023-06-05T19:56:17.508Z,2.85
2023-06-05T19:58:46.502Z,3.40
2023-06-05T20:01:15.530Z,2.98
2023-06-05T20:03:44.225Z,3.20
2023-06-05T20:06:12.819Z,3.47
2023-06-05T20:08:41.417Z,2.83
2023-06-05T20:11:10.423Z,3.10
2023-06-05T20:13:39.973Z,3.55
2023-06-05T20:16:08.949Z,3.35
2023-06-05T20:18:39.103Z,3.98
2023-06-05T20:21:08.558Z,3.40
2023-06-05T20:23:37.686Z,3.35
2023-06-05T20:26:08.498Z,3.17
2023-06-05T20:28:37.808Z,3.75
2023-06-05T20:31:07.556Z,3.20
2023-06-05T20:33:39.385Z,3.33
2023-06-05T20:36:10.954Z,3.47
2023-06-05T20:38:40.379Z,3.60
2023-06-05T20:41:13.625Z,3.37
2023-06-05T20:43:44.192Z,3.15
2023-06-05T20:46:14.042Z,3.20
2023-06-05T20:48:46.146Z,3.50
2023-06-05T20:51:16.928Z,3.20
2023-06-05T20:53:47.406Z,3.47
2023-06-05T20:56:27.486Z,3.27
2023-06-05T20:58:56.276Z,3.50
2023-06-05T21:01:27.161Z,3.20
2023-06-05T21:03:55.866Z,3.30
2023-06-05T21:06:24.521Z,4.08
2023-06-05T21:08:54.966Z,4.10
2023-06-05T21:11:23.957Z,3.70
2023-06-05T21:13:52.562Z,3.50
2023-06-05T21:16:21.445Z,4.87
2023-06-05T21:18:49.967Z,4.80
2023-06-05T21:21:18.754Z,4.22
2023-06-05T21:23:48.299Z,3.95
2023-06-05T21:26:17.689Z,5.10
2023-06-05T21:28:46.953Z,4.05
2023-06-05T21:31:15.614Z,3.92
2023-06-05T21:33:44.460Z,4.28
2023-06-05T21:36:13.438Z,4.30
2023-06-05T21:38:42.327Z,3.50
2023-06-05T21:41:11.252Z,3.60
2023-06-05T21:43:40.499Z,3.47
2023-06-05T21:46:09.210Z,3.42
2023-06-05T21:48:37.846Z,3.83
2023-06-05T21:51:06.672Z,3.30
2023-06-05T21:53:36.472Z,3.58
2023-06-05T21:56:05.049Z,3.40
2023-06-05T21:58:34.550Z,3.52
2023-06-05T22:01:04.702Z,3.60
2023-06-05T22:03:34.435Z,4.08
2023-06-05T22:06:04.058Z,3.98
2023-06-05T22:08:34.033Z,3.77
2023-06-05T22:11:04.011Z,4.10
2023-06-05T22:13:33.908Z,3.70
2023-06-05T22:16:02.762Z,3.70
2023-06-05T22:18:31.946Z,3.70
2023-06-05T22:21:01.758Z,3.62
2023-06-05T22:23:30.652Z,3.77
2023-06-05T22:26:00.064Z,3.37
2023-06-05T22:28:29.515Z,3.67
2023-06-05T22:30:59.183Z,3.62
2023-06-05T22:33:30.453Z,3.75
2023-06-05T22:35:59.675Z,3.02
2023-06-05T22:38:28.680Z,3.75
2023-06-05T22:40:58.283Z,3.92
2023-06-05T22:43:28.514Z,3.65
2023-06-05T22:45:57.203Z,3.80
2023-06-05T22:48:27.504Z,3.47
2023-06-05T22:50:56.813Z,3.50
2023-06-05T22:53:25.680Z,3.58
2023-06-05T22:55:54.730Z,3.50
2023-06-05T22:58:23.563Z,3.60
2023-06-05T23:00:55.493Z,3.55
2023-06-05T23:03:24.088Z,3.45
2023-06-05T23:05:53.310Z,3.12
2023-06-05T23:08:23.444Z,3.58
2023-06-05T23:10:52.955Z,3.30
2023-06-05T23:13:22.683Z,3.42
2023-06-05T23:15:53.517Z,3.52
2023-06-05T23:18:23.219Z,3.08
2023-06-05T23:20:51.719Z,3.02
2023-06-05T23:23:22.001Z,2.77
2023-06-05T23:25:50.487Z,3.30
2023-06-05T23:28:20.591Z,3.35
2023-06-05T23:30:49.428Z,3.42
2023-06-05T23:33:18.200Z,3.40
2023-06-05T23:35:46.794Z,3.33
2023-06-05T23:38:16.029Z,3.62
2023-06-05T23:40:50.730Z,3.20
2023-06-05T23:43:20.500Z,3.12
2023-06-05T23:45:49.127Z,3.08
2023-06-05T23:48:18.325Z,3.15
2023-06-05T23:50:46.889Z,4.25
2023-06-05T23:53:16.040Z,2.70
2023-06-05T23:55:45.021Z,2.67
2023-06-05T23:58:13.906Z,2.98
